sensor_id;sensor_type;location;lat;lon;timestamp;P1;durP1;ratioP1;P2;durP2;ratioP2
50976;SDS011;36992;48.200;12.418;2022-12-15T00:02:21;9.85;;;4.35;;
50976;SDS011;36992;48.200;12.418;2022-12-15T00:05:05;8.20;;;4.55;;
50976;SDS011;36992;48.200;12.418;2022-12-15T00:07:49;8.85;;;4.95;;
50976;SDS011;36992;48.200;12.418;2022-12-15T00:10:35;11.50;;;5.78;;
50976;SDS011;36992;48.200;12.418;2022-12-15T00:13:19;10.60;;;6.10;;
50976;SDS011;36992;48.200;12.418;2022-12-15T00:16:03;9.18;;;4.85;;
50976;SDS011;36992;48.200;12.418;2022-12-15T00:18:47;7.38;;;4.28;;
50976;SDS011;36992;48.200;12.418;2022-12-15T00:21:31;8.93;;;4.97;;
50976;SDS011;36992;48.200;12.418;2022-12-15T00:24:15;9.65;;;5.88;;
50976;SDS011;36992;48.200;12.418;2022-12-15T00:27:01;8.77;;;5.20;;
50976;SDS011;36992;48.200;12.418;2022-12-15T00:29:45;8.45;;;4.20;;
50976;SDS011;36992;48.200;12.418;2022-12-15T00:32:28;7.63;;;4.30;;
50976;SDS011;36992;48.200;12.418;2022-12-15T00:35:12;9.68;;;5.03;;
50976;SDS011;36992;48.200;12.418;2022-12-15T00:37:56;8.10;;;4.22;;
50976;SDS011;36992;48.200;12.418;2022-12-15T00:40:40;6.28;;;3.63;;
50976;SDS011;36992;48.200;12.418;2022-12-15T00:43:08;8.10;;;4.22;;
50976;SDS011;36992;48.200;12.418;2022-12-15T00:45:36;7.35;;;3.50;;
50976;SDS011;36992;48.200;12.418;2022-12-15T00:48:20;4.78;;;2.75;;
50976;SDS011;36992;48.200;12.418;2022-12-15T00:50:46;7.63;;;4.38;;
50976;SDS011;36992;48.200;12.418;2022-12-15T00:53:18;8.65;;;4.80;;
50976;SDS011;36992;48.200;12.418;2022-12-15T00:56:02;8.25;;;5.00;;
50976;SDS011;36992;48.200;12.418;2022-12-15T00:58:48;7.13;;;5.05;;
50976;SDS011;36992;48.200;12.418;2022-12-15T01:01:32;6.97;;;3.97;;
50976;SDS011;36992;48.200;12.418;2022-12-15T01:04:15;8.48;;;4.40;;
50976;SDS011;36992;48.200;12.418;2022-12-15T01:06:59;8.23;;;4.88;;
50976;SDS011;36992;48.200;12.418;2022-12-15T01:09:43;9.57;;;5.55;;
50976;SDS011;36992;48.200;12.418;2022-12-15T01:12:27;7.80;;;4.05;;
50976;SDS011;36992;48.200;12.418;2022-12-15T01:15:12;7.47;;;4.20;;
50976;SDS011;36992;48.200;12.418;2022-12-15T01:17:56;8.13;;;4.10;;
50976;SDS011;36992;48.200;12.418;2022-12-15T01:20:41;7.00;;;3.55;;
50976;SDS011;36992;48.200;12.418;2022-12-15T01:23:07;6.93;;;4.07;;
50976;SDS011;36992;48.200;12.418;2022-12-15T01:25:34;6.30;;;3.67;;
50976;SDS011;36992;48.200;12.418;2022-12-15T01:28:04;9.10;;;4.88;;
50976;SDS011;36992;48.200;12.418;2022-12-15T01:30:32;8.63;;;4.75;;
50976;SDS011;36992;48.200;12.418;2022-12-15T01:32:59;9.10;;;4.95;;
50976;SDS011;36992;48.200;12.418;2022-12-15T01:35:25;10.32;;;5.50;;
50976;SDS011;36992;48.200;12.418;2022-12-15T01:37:52;10.32;;;5.95;;
50976;SDS011;36992;48.200;12.418;2022-12-15T01:40:19;10.25;;;5.35;;
50976;SDS011;36992;48.200;12.418;2022-12-15T01:43:07;7.63;;;4.70;;
50976;SDS011;36992;48.200;12.418;2022-12-15T01:45:44;8.20;;;4.68;;
50976;SDS011;36992;48.200;12.418;2022-12-15T01:48:18;9.02;;;4.97;;
50976;SDS011;36992;48.200;12.418;2022-12-15T01:50:50;9.23;;;5.57;;
50976;SDS011;36992;48.200;12.418;2022-12-15T01:53:23;8.60;;;4.75;;
50976;SDS011;36992;48.200;12.418;2022-12-15T01:55:51;7.95;;;4.70;;
50976;SDS011;36992;48.200;12.418;2022-12-15T01:58:17;8.32;;;4.97;;
50976;SDS011;36992;48.200;12.418;2022-12-15T02:00:46;7.68;;;4.25;;
50976;SDS011;36992;48.200;12.418;2022-12-15T02:03:13;8.73;;;4.95;;
50976;SDS011;36992;48.200;12.418;2022-12-15T02:05:40;8.80;;;5.25;;
50976;SDS011;36992;48.200;12.418;2022-12-15T02:08:07;9.05;;;5.30;;
50976;SDS011;36992;48.200;12.418;2022-12-15T02:10:37;9.60;;;5.15;;
50976;SDS011;36992;48.200;12.418;2022-12-15T02:13:20;9.05;;;4.47;;
50976;SDS011;36992;48.200;12.418;2022-12-15T02:15:57;8.75;;;4.93;;
50976;SDS011;36992;48.200;12.418;2022-12-15T02:18:31;9.10;;;4.80;;
50976;SDS011;36992;48.200;12.418;2022-12-15T02:21:04;13.40;;;6.25;;
50976;SDS011;36992;48.200;12.418;2022-12-15T02:26:44;8.60;;;4.25;;
50976;SDS011;36992;48.200;12.418;2022-12-15T02:29:39;10.63;;;5.97;;
50976;SDS011;36992;48.200;12.418;2022-12-15T02:32:27;11.43;;;6.28;;
50976;SDS011;36992;48.200;12.418;2022-12-15T02:35:00;9.05;;;5.53;;
50976;SDS011;36992;48.200;12.418;2022-12-15T02:37:29;9.30;;;4.97;;
50976;SDS011;36992;48.200;12.418;2022-12-15T02:39:58;10.30;;;5.88;;
50976;SDS011;36992;48.200;12.418;2022-12-15T02:42:25;10.95;;;6.28;;
50976;SDS011;36992;48.200;12.418;2022-12-15T02:44:54;13.68;;;7.38;;
50976;SDS011;36992;48.200;12.418;2022-12-15T02:47:28;11.43;;;6.82;;
50976;SDS011;36992;48.200;12.418;2022-12-15T02:50:04;12.88;;;6.65;;
50976;SDS011;36992;48.200;12.418;2022-12-15T02:52:49;12.35;;;5.55;;
50976;SDS011;36992;48.200;12.418;2022-12-15T02:55:26;10.57;;;6.00;;
50976;SDS011;36992;48.200;12.418;2022-12-15T02:58:01;11.70;;;6.75;;
50976;SDS011;36992;48.200;12.418;2022-12-15T03:00:32;13.07;;;7.13;;
50976;SDS011;36992;48.200;12.418;2022-12-15T03:03:04;10.90;;;6.63;;
50976;SDS011;36992;48.200;12.418;2022-12-15T03:05:30;10.75;;;5.97;;
50976;SDS011;36992;48.200;12.418;2022-12-15T03:07:57;10.32;;;5.80;;
50976;SDS011;36992;48.200;12.418;2022-12-15T03:10:25;10.63;;;6.80;;
50976;SDS011;36992;48.200;12.418;2022-12-15T03:12:52;10.27;;;5.93;;
50976;SDS011;36992;48.200;12.418;2022-12-15T03:15:19;15.15;;;6.97;;
50976;SDS011;36992;48.200;12.418;2022-12-15T03:17:46;12.40;;;6.78;;
50976;SDS011;36992;48.200;12.418;2022-12-15T03:20:14;12.23;;;6.32;;
50976;SDS011;36992;48.200;12.418;2022-12-15T03:22:41;10.52;;;5.80;;
50976;SDS011;36992;48.200;12.418;2022-12-15T03:25:08;12.68;;;6.75;;
50976;SDS011;36992;48.200;12.418;2022-12-15T03:27:35;10.93;;;5.53;;
50976;SDS011;36992;48.200;12.418;2022-12-15T03:30:02;11.43;;;5.32;;
50976;SDS011;36992;48.200;12.418;2022-12-15T03:32:29;12.80;;;5.97;;
50976;SDS011;36992;48.200;12.418;2022-12-15T03:34:56;12.35;;;6.97;;
50976;SDS011;36992;48.200;12.418;2022-12-15T03:37:24;14.50;;;8.35;;
50976;SDS011;36992;48.200;12.418;2022-12-15T03:39:51;12.73;;;7.13;;
50976;SDS011;36992;48.200;12.418;2022-12-15T03:42:17;10.48;;;5.60;;
50976;SDS011;36992;48.200;12.418;2022-12-15T03:45:04;9.82;;;5.15;;
50976;SDS011;36992;48.200;12.418;2022-12-15T03:47:32;11.63;;;6.03;;
50976;SDS011;36992;48.200;12.418;2022-12-15T03:49:58;11.65;;;6.22;;
50976;SDS011;36992;48.200;12.418;2022-12-15T03:52:26;10.68;;;6.03;;
50976;SDS011;36992;48.200;12.418;2022-12-15T03:54:53;10.68;;;5.93;;
50976;SDS011;36992;48.200;12.418;2022-12-15T03:57:19;9.32;;;5.38;;
50976;SDS011;36992;48.200;12.418;2022-12-15T03:59:46;11.60;;;5.85;;
50976;SDS011;36992;48.200;12.418;2022-12-15T04:02:12;13.63;;;6.80;;
50976;SDS011;36992;48.200;12.418;2022-12-15T04:04:39;16.20;;;9.77;;
50976;SDS011;36992;48.200;12.418;2022-12-15T04:07:05;15.85;;;9.25;;
50976;SDS011;36992;48.200;12.418;2022-12-15T04:09:34;12.68;;;6.85;;
50976;SDS011;36992;48.200;12.418;2022-12-15T04:12:01;13.07;;;7.22;;
50976;SDS011;36992;48.200;12.418;2022-12-15T04:14:28;11.90;;;6.78;;
50976;SDS011;36992;48.200;12.418;2022-12-15T04:16:54;10.85;;;5.82;;
50976;SDS011;36992;48.200;12.418;2022-12-15T04:19:21;10.65;;;5.65;;
50976;SDS011;36992;48.200;12.418;2022-12-15T04:22:05;10.38;;;5.65;;
50976;SDS011;36992;48.200;12.418;2022-12-15T04:24:32;12.35;;;6.57;;
50976;SDS011;36992;48.200;12.418;2022-12-15T04:27:17;9.25;;;5.88;;
50976;SDS011;36992;48.200;12.418;2022-12-15T04:30:02;9.38;;;5.15;;
50976;SDS011;36992;48.200;12.418;2022-12-15T04:32:46;9.65;;;4.85;;
50976;SDS011;36992;48.200;12.418;2022-12-15T04:35:30;12.52;;;6.57;;
50976;SDS011;36992;48.200;12.418;2022-12-15T04:38:17;8.95;;;5.35;;
50976;SDS011;36992;48.200;12.418;2022-12-15T04:41:01;11.55;;;6.28;;
50976;SDS011;36992;48.200;12.418;2022-12-15T04:43:46;12.10;;;6.18;;
50976;SDS011;36992;48.200;12.418;2022-12-15T04:46:30;11.50;;;6.75;;
50976;SDS011;36992;48.200;12.418;2022-12-15T04:49:14;11.80;;;6.13;;
50976;SDS011;36992;48.200;12.418;2022-12-15T04:51:58;8.98;;;5.38;;
50976;SDS011;36992;48.200;12.418;2022-12-15T04:54:42;14.68;;;7.68;;
50976;SDS011;36992;48.200;12.418;2022-12-15T04:57:26;10.10;;;5.85;;
50976;SDS011;36992;48.200;12.418;2022-12-15T05:00:12;12.52;;;5.70;;
50976;SDS011;36992;48.200;12.418;2022-12-15T05:03:02;10.25;;;5.75;;
50976;SDS011;36992;48.200;12.418;2022-12-15T05:05:47;10.13;;;5.07;;
50976;SDS011;36992;48.200;12.418;2022-12-15T05:08:31;11.10;;;5.53;;
50976;SDS011;36992;48.200;12.418;2022-12-15T05:11:16;10.27;;;5.50;;
50976;SDS011;36992;48.200;12.418;2022-12-15T05:14:00;11.00;;;5.93;;
50976;SDS011;36992;48.200;12.418;2022-12-15T05:16:45;10.13;;;5.80;;
50976;SDS011;36992;48.200;12.418;2022-12-15T05:19:29;9.40;;;5.25;;
50976;SDS011;36992;48.200;12.418;2022-12-15T05:22:13;10.07;;;5.55;;
50976;SDS011;36992;48.200;12.418;2022-12-15T05:24:57;8.80;;;5.20;;
50976;SDS011;36992;48.200;12.418;2022-12-15T05:27:40;9.23;;;5.50;;
50976;SDS011;36992;48.200;12.418;2022-12-15T05:30:24;8.93;;;4.75;;
50976;SDS011;36992;48.200;12.418;2022-12-15T05:33:09;9.52;;;4.22;;
50976;SDS011;36992;48.200;12.418;2022-12-15T05:35:36;10.13;;;5.78;;
50976;SDS011;36992;48.200;12.418;2022-12-15T05:38:03;10.02;;;4.97;;
50976;SDS011;36992;48.200;12.418;2022-12-15T05:40:29;11.13;;;5.90;;
50976;SDS011;36992;48.200;12.418;2022-12-15T05:42:56;9.68;;;4.78;;
50976;SDS011;36992;48.200;12.418;2022-12-15T05:45:23;10.32;;;4.97;;
50976;SDS011;36992;48.200;12.418;2022-12-15T05:47:50;12.45;;;6.45;;
50976;SDS011;36992;48.200;12.418;2022-12-15T05:50:18;9.27;;;5.47;;
50976;SDS011;36992;48.200;12.418;2022-12-15T05:52:45;10.98;;;5.65;;
50976;SDS011;36992;48.200;12.418;2022-12-15T05:55:13;11.82;;;5.28;;
50976;SDS011;36992;48.200;12.418;2022-12-15T05:57:40;11.60;;;5.93;;
50976;SDS011;36992;48.200;12.418;2022-12-15T06:00:07;11.63;;;5.88;;
50976;SDS011;36992;48.200;12.418;2022-12-15T06:02:35;11.23;;;5.85;;
50976;SDS011;36992;48.200;12.418;2022-12-15T06:05:01;12.90;;;7.05;;
50976;SDS011;36992;48.200;12.418;2022-12-15T06:07:29;9.95;;;5.60;;
50976;SDS011;36992;48.200;12.418;2022-12-15T06:09:56;11.45;;;6.00;;
50976;SDS011;36992;48.200;12.418;2022-12-15T06:12:22;10.13;;;5.55;;
50976;SDS011;36992;48.200;12.418;2022-12-15T06:14:49;10.55;;;6.05;;
50976;SDS011;36992;48.200;12.418;2022-12-15T06:17:17;10.95;;;5.55;;
50976;SDS011;36992;48.200;12.418;2022-12-15T06:19:43;11.07;;;6.25;;
50976;SDS011;36992;48.200;12.418;2022-12-15T06:22:10;11.07;;;5.47;;
50976;SDS011;36992;48.200;12.418;2022-12-15T06:24:38;11.13;;;5.45;;
50976;SDS011;36992;48.200;12.418;2022-12-15T06:27:05;12.48;;;6.75;;
50976;SDS011;36992;48.200;12.418;2022-12-15T06:29:33;11.60;;;5.78;;
50976;SDS011;36992;48.200;12.418;2022-12-15T06:31:59;10.27;;;5.22;;
50976;SDS011;36992;48.200;12.418;2022-12-15T06:34:26;9.23;;;5.03;;
50976;SDS011;36992;48.200;12.418;2022-12-15T06:36:52;9.10;;;5.00;;
50976;SDS011;36992;48.200;12.418;2022-12-15T06:39:19;9.70;;;4.82;;
50976;SDS011;36992;48.200;12.418;2022-12-15T06:41:47;10.70;;;5.38;;
50976;SDS011;36992;48.200;12.418;2022-12-15T06:44:14;10.82;;;5.70;;
50976;SDS011;36992;48.200;12.418;2022-12-15T06:46:41;9.55;;;5.18;;
50976;SDS011;36992;48.200;12.418;2022-12-15T06:49:09;9.90;;;5.25;;
50976;SDS011;36992;48.200;12.418;2022-12-15T06:51:36;11.25;;;6.25;;
50976;SDS011;36992;48.200;12.418;2022-12-15T06:54:03;10.77;;;5.97;;
50976;SDS011;36992;48.200;12.418;2022-12-15T06:56:30;10.20;;;5.47;;
50976;SDS011;36992;48.200;12.418;2022-12-15T06:59:01;10.75;;;5.50;;
50976;SDS011;36992;48.200;12.418;2022-12-15T07:01:29;11.38;;;6.22;;
50976;SDS011;36992;48.200;12.418;2022-12-15T07:03:56;10.13;;;5.43;;
50976;SDS011;36992;48.200;12.418;2022-12-15T07:06:25;10.77;;;6.43;;
50976;SDS011;36992;48.200;12.418;2022-12-15T07:08:53;9.95;;;5.50;;
50976;SDS011;36992;48.200;12.418;2022-12-15T07:11:21;11.77;;;6.53;;
50976;SDS011;36992;48.200;12.418;2022-12-15T07:13:47;11.80;;;6.32;;
50976;SDS011;36992;48.200;12.418;2022-12-15T07:16:16;12.93;;;6.55;;
50976;SDS011;36992;48.200;12.418;2022-12-15T07:18:43;11.73;;;6.35;;
50976;SDS011;36992;48.200;12.418;2022-12-15T07:21:09;10.45;;;5.65;;
50976;SDS011;36992;48.200;12.418;2022-12-15T07:23:36;9.77;;;4.75;;
50976;SDS011;36992;48.200;12.418;2022-12-15T07:26:03;10.15;;;5.65;;
50976;SDS011;36992;48.200;12.418;2022-12-15T07:28:31;12.43;;;6.53;;
50976;SDS011;36992;48.200;12.418;2022-12-15T07:31:00;10.57;;;5.75;;
50976;SDS011;36992;48.200;12.418;2022-12-15T07:33:29;13.82;;;7.03;;
50976;SDS011;36992;48.200;12.418;2022-12-15T07:35:57;10.82;;;5.50;;
50976;SDS011;36992;48.200;12.418;2022-12-15T07:38:24;12.13;;;6.38;;
50976;SDS011;36992;48.200;12.418;2022-12-15T07:40:51;14.73;;;7.38;;
50976;SDS011;36992;48.200;12.418;2022-12-15T07:43:19;17.88;;;8.57;;
50976;SDS011;36992;48.200;12.418;2022-12-15T07:45:50;23.23;;;10.50;;
50976;SDS011;36992;48.200;12.418;2022-12-15T07:48:17;23.02;;;10.98;;
50976;SDS011;36992;48.200;12.418;2022-12-15T07:50:45;18.05;;;8.73;;
50976;SDS011;36992;48.200;12.418;2022-12-15T07:53:12;18.70;;;9.02;;
50976;SDS011;36992;48.200;12.418;2022-12-15T07:55:38;16.67;;;8.95;;
50976;SDS011;36992;48.200;12.418;2022-12-15T07:58:05;15.60;;;7.90;;
50976;SDS011;36992;48.200;12.418;2022-12-15T08:00:32;16.13;;;7.75;;
50976;SDS011;36992;48.200;12.418;2022-12-15T08:02:59;16.63;;;9.38;;
50976;SDS011;36992;48.200;12.418;2022-12-15T08:05:26;15.10;;;8.13;;
50976;SDS011;36992;48.200;12.418;2022-12-15T08:07:54;12.43;;;6.72;;
50976;SDS011;36992;48.200;12.418;2022-12-15T08:10:22;12.82;;;6.85;;
50976;SDS011;36992;48.200;12.418;2022-12-15T08:12:48;16.23;;;9.35;;
50976;SDS011;36992;48.200;12.418;2022-12-15T08:15:15;15.80;;;8.88;;
50976;SDS011;36992;48.200;12.418;2022-12-15T08:17:42;17.00;;;9.35;;
50976;SDS011;36992;48.200;12.418;2022-12-15T08:20:10;19.13;;;11.30;;
50976;SDS011;36992;48.200;12.418;2022-12-15T08:22:36;16.20;;;9.07;;
50976;SDS011;36992;48.200;12.418;2022-12-15T08:25:04;14.98;;;8.07;;
50976;SDS011;36992;48.200;12.418;2022-12-15T08:27:31;11.60;;;6.50;;
50976;SDS011;36992;48.200;12.418;2022-12-15T08:29:58;10.10;;;5.72;;
50976;SDS011;36992;48.200;12.418;2022-12-15T08:32:24;15.73;;;8.27;;
50976;SDS011;36992;48.200;12.418;2022-12-15T08:34:51;21.63;;;11.27;;
50976;SDS011;36992;48.200;12.418;2022-12-15T08:37:17;15.70;;;9.25;;
50976;SDS011;36992;48.200;12.418;2022-12-15T08:39:44;12.02;;;7.30;;
50976;SDS011;36992;48.200;12.418;2022-12-15T08:42:13;17.83;;;9.48;;
50976;SDS011;36992;48.200;12.418;2022-12-15T08:44:40;18.60;;;10.35;;
50976;SDS011;36992;48.200;12.418;2022-12-15T08:47:06;13.85;;;7.97;;
50976;SDS011;36992;48.200;12.418;2022-12-15T08:49:33;14.25;;;6.95;;
50976;SDS011;36992;48.200;12.418;2022-12-15T08:52:00;12.23;;;6.35;;
50976;SDS011;36992;48.200;12.418;2022-12-15T08:54:26;12.05;;;6.18;;
50976;SDS011;36992;48.200;12.418;2022-12-15T08:56:53;14.93;;;8.13;;
50976;SDS011;36992;48.200;12.418;2022-12-15T08:59:21;13.60;;;7.22;;
50976;SDS011;36992;48.200;12.418;2022-12-15T09:01:47;13.40;;;6.22;;
50976;SDS011;36992;48.200;12.418;2022-12-15T09:04:14;13.00;;;6.45;;
50976;SDS011;36992;48.200;12.418;2022-12-15T09:06:41;11.93;;;6.20;;
50976;SDS011;36992;48.200;12.418;2022-12-15T09:09:09;9.85;;;5.32;;
50976;SDS011;36992;48.200;12.418;2022-12-15T09:11:38;10.95;;;6.22;;
50976;SDS011;36992;48.200;12.418;2022-12-15T09:14:05;13.73;;;7.95;;
50976;SDS011;36992;48.200;12.418;2022-12-15T09:16:33;11.45;;;6.13;;
50976;SDS011;36992;48.200;12.418;2022-12-15T09:19:00;12.60;;;7.50;;
50976;SDS011;36992;48.200;12.418;2022-12-15T09:21:27;13.65;;;7.05;;
50976;SDS011;36992;48.200;12.418;2022-12-15T09:23:56;11.60;;;6.15;;
50976;SDS011;36992;48.200;12.418;2022-12-15T09:26:26;12.65;;;6.30;;
50976;SDS011;36992;48.200;12.418;2022-12-15T09:28:53;11.13;;;6.38;;
50976;SDS011;36992;48.200;12.418;2022-12-15T09:31:21;11.90;;;5.53;;
50976;SDS011;36992;48.200;12.418;2022-12-15T09:33:51;12.32;;;5.90;;
50976;SDS011;36992;48.200;12.418;2022-12-15T09:36:18;12.77;;;6.68;;
50976;SDS011;36992;48.200;12.418;2022-12-15T09:38:45;17.75;;;10.10;;
50976;SDS011;36992;48.200;12.418;2022-12-15T09:41:16;16.50;;;9.60;;
50976;SDS011;36992;48.200;12.418;2022-12-15T09:43:48;20.75;;;12.07;;
50976;SDS011;36992;48.200;12.418;2022-12-15T09:46:22;17.48;;;9.98;;
50976;SDS011;36992;48.200;12.418;2022-12-15T09:48:54;14.80;;;8.70;;
50976;SDS011;36992;48.200;12.418;2022-12-15T09:51:25;15.27;;;8.98;;
50976;SDS011;36992;48.200;12.418;2022-12-15T09:53:58;13.98;;;7.85;;
50976;SDS011;36992;48.200;12.418;2022-12-15T09:56:25;13.77;;;7.35;;
50976;SDS011;36992;48.200;12.418;2022-12-15T09:59:02;10.05;;;6.25;;
50976;SDS011;36992;48.200;12.418;2022-12-15T10:01:36;10.02;;;5.82;;
50976;SDS011;36992;48.200;12.418;2022-12-15T10:04:14;11.57;;;6.35;;
50976;SDS011;36992;48.200;12.418;2022-12-15T10:06:53;11.88;;;7.25;;
50976;SDS011;36992;48.200;12.418;2022-12-15T10:09:27;12.77;;;6.32;;
50976;SDS011;36992;48.200;12.418;2022-12-15T10:11:56;10.63;;;5.90;;
50976;SDS011;36992;48.200;12.418;2022-12-15T10:14:28;16.25;;;8.25;;
50976;SDS011;36992;48.200;12.418;2022-12-15T10:17:00;13.35;;;7.65;;
50976;SDS011;36992;48.200;12.418;2022-12-15T10:19:36;15.32;;;8.13;;
50976;SDS011;36992;48.200;12.418;2022-12-15T10:22:09;15.50;;;7.03;;
50976;SDS011;36992;48.200;12.418;2022-12-15T10:24:38;11.88;;;6.47;;
50976;SDS011;36992;48.200;12.418;2022-12-15T10:27:11;9.30;;;5.55;;
50976;SDS011;36992;48.200;12.418;2022-12-15T10:29:48;14.30;;;7.18;;
50976;SDS011;36992;48.200;12.418;2022-12-15T10:32:22;13.02;;;7.32;;
50976;SDS011;36992;48.200;12.418;2022-12-15T10:34:58;12.02;;;7.22;;
50976;SDS011;36992;48.200;12.418;2022-12-15T10:37:25;13.60;;;7.70;;
50976;SDS011;36992;48.200;12.418;2022-12-15T10:39:51;12.55;;;7.38;;
50976;SDS011;36992;48.200;12.418;2022-12-15T10:42:19;11.75;;;6.68;;
50976;SDS011;36992;48.200;12.418;2022-12-15T10:44:47;18.52;;;9.88;;
50976;SDS011;36992;48.200;12.418;2022-12-15T10:47:16;17.92;;;10.13;;
50976;SDS011;36992;48.200;12.418;2022-12-15T10:49:45;19.00;;;9.32;;
50976;SDS011;36992;48.200;12.418;2022-12-15T10:52:19;15.70;;;9.00;;
50976;SDS011;36992;48.200;12.418;2022-12-15T10:57:16;12.20;;;7.00;;
50976;SDS011;36992;48.200;12.418;2022-12-15T10:59:45;12.65;;;7.20;;
50976;SDS011;36992;48.200;12.418;2022-12-15T11:02:24;15.15;;;7.90;;
50976;SDS011;36992;48.200;12.418;2022-12-15T11:05:01;12.50;;;7.20;;
50976;SDS011;36992;48.200;12.418;2022-12-15T11:07:36;16.52;;;8.52;;
50976;SDS011;36992;48.200;12.418;2022-12-15T11:10:12;14.80;;;7.95;;
50976;SDS011;36992;48.200;12.418;2022-12-15T11:12:41;12.90;;;7.38;;
50976;SDS011;36992;48.200;12.418;2022-12-15T11:15:33;12.88;;;7.20;;
50976;SDS011;36992;48.200;12.418;2022-12-15T11:18:19;13.38;;;7.35;;
50976;SDS011;36992;48.200;12.418;2022-12-15T11:20:51;11.70;;;6.35;;
50976;SDS011;36992;48.200;12.418;2022-12-15T11:23:27;16.10;;;8.05;;
50976;SDS011;36992;48.200;12.418;2022-12-15T11:26:04;14.35;;;7.82;;
50976;SDS011;36992;48.200;12.418;2022-12-15T11:28:41;18.90;;;10.55;;
50976;SDS011;36992;48.200;12.418;2022-12-15T11:31:15;18.58;;;9.70;;
50976;SDS011;36992;48.200;12.418;2022-12-15T11:33:47;17.80;;;9.75;;
50976;SDS011;36992;48.200;12.418;2022-12-15T11:36:18;14.32;;;7.97;;
50976;SDS011;36992;48.200;12.418;2022-12-15T11:38:54;10.70;;;6.60;;
50976;SDS011;36992;48.200;12.418;2022-12-15T11:41:29;18.67;;;10.43;;
50976;SDS011;36992;48.200;12.418;2022-12-15T11:46:51;13.82;;;8.05;;
50976;SDS011;36992;48.200;12.418;2022-12-15T11:49:39;16.17;;;7.90;;
50976;SDS011;36992;48.200;12.418;2022-12-15T11:52:43;13.50;;;6.75;;
50976;SDS011;36992;48.200;12.418;2022-12-15T11:55:19;15.45;;;8.15;;
50976;SDS011;36992;48.200;12.418;2022-12-15T11:57:55;12.65;;;6.75;;
50976;SDS011;36992;48.200;12.418;2022-12-15T12:00:34;12.93;;;6.93;;
50976;SDS011;36992;48.200;12.418;2022-12-15T12:03:10;13.23;;;7.57;;
50976;SDS011;36992;48.200;12.418;2022-12-15T12:05:49;11.93;;;6.25;;
50976;SDS011;36992;48.200;12.418;2022-12-15T12:08:31;13.90;;;7.10;;
50976;SDS011;36992;48.200;12.418;2022-12-15T12:11:10;15.40;;;8.38;;
50976;SDS011;36992;48.200;12.418;2022-12-15T12:13:40;12.57;;;7.78;;
50976;SDS011;36992;48.200;12.418;2022-12-15T12:16:19;14.35;;;6.85;;
50976;SDS011;36992;48.200;12.418;2022-12-15T12:18:54;13.02;;;7.60;;
50976;SDS011;36992;48.200;12.418;2022-12-15T12:21:27;13.38;;;7.10;;
50976;SDS011;36992;48.200;12.418;2022-12-15T12:23:57;12.93;;;7.30;;
50976;SDS011;36992;48.200;12.418;2022-12-15T12:26:30;13.43;;;7.28;;
50976;SDS011;36992;48.200;12.418;2022-12-15T12:29:04;11.52;;;6.53;;
50976;SDS011;36992;48.200;12.418;2022-12-15T12:31:37;12.00;;;6.47;;
50976;SDS011;36992;48.200;12.418;2022-12-15T12:34:14;12.97;;;7.23;;
50976;SDS011;36992;48.200;12.418;2022-12-15T12:39:16;12.70;;;6.10;;
50976;SDS011;36992;48.200;12.418;2022-12-15T12:41:49;11.90;;;5.95;;
50976;SDS011;36992;48.200;12.418;2022-12-15T12:44:23;12.93;;;6.50;;
50976;SDS011;36992;48.200;12.418;2022-12-15T12:46:54;16.10;;;9.18;;
50976;SDS011;36992;48.200;12.418;2022-12-15T12:49:32;14.98;;;8.57;;
50976;SDS011;36992;48.200;12.418;2022-12-15T12:52:03;17.38;;;9.57;;
50976;SDS011;36992;48.200;12.418;2022-12-15T12:54:39;22.90;;;12.73;;
50976;SDS011;36992;48.200;12.418;2022-12-15T13:00:04;16.88;;;9.93;;
50976;SDS011;36992;48.200;12.418;2022-12-15T13:02:44;22.15;;;11.07;;
50976;SDS011;36992;48.200;12.418;2022-12-15T13:05:24;24.40;;;12.23;;
50976;SDS011;36992;48.200;12.418;2022-12-15T13:10:58;18.88;;;9.27;;
50976;SDS011;36992;48.200;12.418;2022-12-15T13:14:13;14.95;;;7.43;;
50976;SDS011;36992;48.200;12.418;2022-12-15T13:16:43;13.95;;;7.13;;
50976;SDS011;36992;48.200;12.418;2022-12-15T13:19:11;14.00;;;7.55;;
50976;SDS011;36992;48.200;12.418;2022-12-15T13:21:53;13.32;;;6.90;;
50976;SDS011;36992;48.200;12.418;2022-12-15T13:24:26;16.33;;;8.30;;
50976;SDS011;36992;48.200;12.418;2022-12-15T13:29:54;23.10;;;12.13;;
50976;SDS011;36992;48.200;12.418;2022-12-15T13:32:30;18.98;;;9.95;;
50976;SDS011;36992;48.200;12.418;2022-12-15T13:35:00;15.55;;;8.70;;
50976;SDS011;36992;48.200;12.418;2022-12-15T13:37:45;20.00;;;10.00;;
50976;SDS011;36992;48.200;12.418;2022-12-15T13:40:27;18.55;;;9.98;;
50976;SDS011;36992;48.200;12.418;2022-12-15T13:43:30;17.23;;;9.68;;
50976;SDS011;36992;48.200;12.418;2022-12-15T13:46:10;17.75;;;9.38;;
50976;SDS011;36992;48.200;12.418;2022-12-15T13:48:40;21.50;;;11.55;;
50976;SDS011;36992;48.200;12.418;2022-12-15T13:53:58;15.70;;;8.23;;
50976;SDS011;36992;48.200;12.418;2022-12-15T13:56:39;19.38;;;10.40;;
50976;SDS011;36992;48.200;12.418;2022-12-15T13:59:21;19.30;;;10.80;;
50976;SDS011;36992;48.200;12.418;2022-12-15T14:01:55;17.73;;;9.75;;
50976;SDS011;36992;48.200;12.418;2022-12-15T14:04:22;16.08;;;9.07;;
50976;SDS011;36992;48.200;12.418;2022-12-15T14:06:51;20.40;;;10.50;;
50976;SDS011;36992;48.200;12.418;2022-12-15T14:09:19;20.77;;;10.70;;
50976;SDS011;36992;48.200;12.418;2022-12-15T14:11:50;28.52;;;15.73;;
50976;SDS011;36992;48.200;12.418;2022-12-15T14:14:18;20.52;;;12.07;;
50976;SDS011;36992;48.200;12.418;2022-12-15T14:16:50;23.20;;;10.93;;
50976;SDS011;36992;48.200;12.418;2022-12-15T14:19:21;15.57;;;8.75;;
50976;SDS011;36992;48.200;12.418;2022-12-15T14:21:48;18.13;;;9.35;;
50976;SDS011;36992;48.200;12.418;2022-12-15T14:24:23;19.45;;;10.70;;
50976;SDS011;36992;48.200;12.418;2022-12-15T14:26:51;13.00;;;6.77;;
50976;SDS011;36992;48.200;12.418;2022-12-15T14:29:18;16.25;;;8.80;;
50976;SDS011;36992;48.200;12.418;2022-12-15T14:31:46;16.92;;;8.57;;
50976;SDS011;36992;48.200;12.418;2022-12-15T14:34:18;17.85;;;8.68;;
50976;SDS011;36992;48.200;12.418;2022-12-15T14:36:54;15.20;;;8.18;;
50976;SDS011;36992;48.200;12.418;2022-12-15T14:39:25;15.27;;;7.82;;
50976;SDS011;36992;48.200;12.418;2022-12-15T14:41:55;17.38;;;8.35;;
50976;SDS011;36992;48.200;12.418;2022-12-15T14:44:26;17.73;;;10.02;;
50976;SDS011;36992;48.200;12.418;2022-12-15T14:46:57;15.80;;;9.52;;
50976;SDS011;36992;48.200;12.418;2022-12-15T14:49:27;14.50;;;8.45;;
50976;SDS011;36992;48.200;12.418;2022-12-15T14:51:57;17.75;;;8.70;;
50976;SDS011;36992;48.200;12.418;2022-12-15T14:54:29;15.48;;;8.25;;
50976;SDS011;36992;48.200;12.418;2022-12-15T14:57:00;15.95;;;8.32;;
50976;SDS011;36992;48.200;12.418;2022-12-15T14:59:32;14.55;;;8.23;;
50976;SDS011;36992;48.200;12.418;2022-12-15T15:02:01;13.90;;;7.75;;
50976;SDS011;36992;48.200;12.418;2022-12-15T15:04:39;14.73;;;7.97;;
50976;SDS011;36992;48.200;12.418;2022-12-15T15:07:06;16.75;;;8.70;;
50976;SDS011;36992;48.200;12.418;2022-12-15T15:09:41;21.17;;;11.47;;
50976;SDS011;36992;48.200;12.418;2022-12-15T15:12:12;20.13;;;11.90;;
50976;SDS011;36992;48.200;12.418;2022-12-15T15:14:41;20.38;;;11.00;;
50976;SDS011;36992;48.200;12.418;2022-12-15T15:17:14;22.70;;;10.68;;
50976;SDS011;36992;48.200;12.418;2022-12-15T15:19:49;25.17;;;15.05;;